sensor_id;sensor_type;location;lat;lon;timestamp;P1;durP1;ratioP1;P2;durP2;ratioP2
9485;SDS011;4781;48.776;9.200;2022-12-07T00:01:43;7.87;;;4.15;;
9485;SDS011;4781;48.776;9.200;2022-12-07T00:04:14;6.55;;;3.77;;
9485;SDS011;4781;48.776;9.200;2022-12-07T00:06:46;9.00;;;4.28;;
9485;SDS011;4781;48.776;9.200;2022-12-07T00:09:18;7.70;;;4.33;;
9485;SDS011;4781;48.776;9.200;2022-12-07T00:11:50;11.30;;;4.92;;
9485;SDS011;4781;48.776;9.200;2022-12-07T00:14:19;6.85;;;4.28;;
9485;SDS011;4781;48.776;9.200;2022-12-07T00:17:08;7.55;;;4.42;;
9485;SDS011;4781;48.776;9.200;2022-12-07T00:19:37;7.30;;;4.15;;
9485;SDS011;4781;48.776;9.200;2022-12-07T00:22:06;8.80;;;4.83;;
9485;SDS011;4781;48.776;9.200;2022-12-07T00:24:34;11.57;;;4.70;;
9485;SDS011;4781;48.776;9.200;2022-12-07T00:27:02;9.65;;;5.05;;
9485;SDS011;4781;48.776;9.200;2022-12-07T00:29:31;8.23;;;4.20;;
9485;SDS011;4781;48.776;9.200;2022-12-07T00:31:59;8.13;;;4.67;;
9485;SDS011;4781;48.776;9.200;2022-12-07T00:34:27;8.78;;;4.60;;
9485;SDS011;4781;48.776;9.200;2022-12-07T00:36:56;8.55;;;5.28;;
9485;SDS011;4781;48.776;9.200;2022-12-07T00:39:24;10.05;;;5.10;;
9485;SDS011;4781;48.776;9.200;2022-12-07T00:41:53;7.97;;;4.50;;
9485;SDS011;4781;48.776;9.200;2022-12-07T00:44:21;7.65;;;4.47;;
9485;SDS011;4781;48.776;9.200;2022-12-07T00:46:49;9.55;;;4.58;;
9485;SDS011;4781;48.776;9.200;2022-12-07T00:49:18;8.70;;;4.33;;
9485;SDS011;4781;48.776;9.200;2022-12-07T00:51:48;9.45;;;4.83;;
9485;SDS011;4781;48.776;9.200;2022-12-07T00:54:16;11.45;;;5.25;;
9485;SDS011;4781;48.776;9.200;2022-12-07T00:56:44;9.65;;;5.33;;
9485;SDS011;4781;48.776;9.200;2022-12-07T00:59:13;11.18;;;5.47;;
9485;SDS011;4781;48.776;9.200;2022-12-07T01:01:41;11.38;;;4.80;;
9485;SDS011;4781;48.776;9.200;2022-12-07T01:04:10;9.45;;;5.65;;
9485;SDS011;4781;48.776;9.200;2022-12-07T01:06:38;10.93;;;5.47;;
9485;SDS011;4781;48.776;9.200;2022-12-07T01:09:07;9.93;;;5.25;;
9485;SDS011;4781;48.776;9.200;2022-12-07T01:11:35;8.25;;;5.05;;
9485;SDS011;4781;48.776;9.200;2022-12-07T01:14:03;12.15;;;5.35;;
9485;SDS011;4781;48.776;9.200;2022-12-07T01:16:32;11.15;;;5.42;;
9485;SDS011;4781;48.776;9.200;2022-12-07T01:19:01;12.20;;;5.58;;
9485;SDS011;4781;48.776;9.200;2022-12-07T01:21:31;9.08;;;5.10;;
9485;SDS011;4781;48.776;9.200;2022-12-07T01:24:03;11.68;;;5.90;;
9485;SDS011;4781;48.776;9.200;2022-12-07T01:26:35;9.28;;;5.30;;
9485;SDS011;4781;48.776;9.200;2022-12-07T01:29:04;14.03;;;6.00;;
9485;SDS011;4781;48.776;9.200;2022-12-07T01:31:32;10.50;;;5.33;;
9485;SDS011;4781;48.776;9.200;2022-12-07T01:34:01;8.65;;;4.75;;
9485;SDS011;4781;48.776;9.200;2022-12-07T01:36:30;10.50;;;5.70;;
9485;SDS011;4781;48.776;9.200;2022-12-07T01:39:02;12.23;;;6.37;;
9485;SDS011;4781;48.776;9.200;2022-12-07T01:41:35;10.38;;;5.60;;
9485;SDS011;4781;48.776;9.200;2022-12-07T01:46:59;10.03;;;5.58;;
9485;SDS011;4781;48.776;9.200;2022-12-07T01:49:31;10.10;;;5.10;;
9485;SDS011;4781;48.776;9.200;2022-12-07T01:52:18;9.93;;;5.45;;
9485;SDS011;4781;48.776;9.200;2022-12-07T01:54:59;10.03;;;5.33;;
9485;SDS011;4781;48.776;9.200;2022-12-07T01:57:30;10.90;;;5.80;;
9485;SDS011;4781;48.776;9.200;2022-12-07T02:00:03;11.33;;;5.72;;
9485;SDS011;4781;48.776;9.200;2022-12-07T02:02:35;10.25;;;5.28;;
9485;SDS011;4781;48.776;9.200;2022-12-07T02:05:25;12.93;;;6.70;;
9485;SDS011;4781;48.776;9.200;2022-12-07T02:07:55;10.58;;;5.67;;
9485;SDS011;4781;48.776;9.200;2022-12-07T02:10:26;9.75;;;5.47;;
9485;SDS011;4781;48.776;9.200;2022-12-07T02:13:16;8.30;;;5.12;;
9485;SDS011;4781;48.776;9.200;2022-12-07T02:18:45;11.12;;;5.97;;
9485;SDS011;4781;48.776;9.200;2022-12-07T02:21:41;9.75;;;5.72;;
9485;SDS011;4781;48.776;9.200;2022-12-07T02:27:39;8.58;;;5.22;;
9485;SDS011;4781;48.776;9.200;2022-12-07T02:30:20;10.87;;;5.43;;
9485;SDS011;4781;48.776;9.200;2022-12-07T02:35:32;9.33;;;5.22;;
9485;SDS011;4781;48.776;9.200;2022-12-07T02:41:21;12.05;;;5.33;;
9485;SDS011;4781;48.776;9.200;2022-12-07T02:44:07;8.95;;;4.95;;
9485;SDS011;4781;48.776;9.200;2022-12-07T02:46:40;9.53;;;5.22;;
9485;SDS011;4781;48.776;9.200;2022-12-07T02:49:15;10.25;;;5.33;;
9485;SDS011;4781;48.776;9.200;2022-12-07T02:51:45;10.40;;;5.47;;
9485;SDS011;4781;48.776;9.200;2022-12-07T02:54:15;12.43;;;6.17;;
9485;SDS011;4781;48.776;9.200;2022-12-07T02:56:49;10.23;;;5.80;;
9485;SDS011;4781;48.776;9.200;2022-12-07T02:59:27;8.85;;;5.25;;
9485;SDS011;4781;48.776;9.200;2022-12-07T03:02:24;11.03;;;5.83;;
9485;SDS011;4781;48.776;9.200;2022-12-07T03:08:39;8.83;;;4.95;;
9485;SDS011;4781;48.776;9.200;2022-12-07T03:11:46;8.43;;;4.40;;
9485;SDS011;4781;48.776;9.200;2022-12-07T03:14:07;9.70;;;5.15;;
9485;SDS011;4781;48.776;9.200;2022-12-07T03:16:53;9.98;;;5.22;;
9485;SDS011;4781;48.776;9.200;2022-12-07T03:19:24;9.00;;;4.80;;
9485;SDS011;4781;48.776;9.200;2022-12-07T03:21:56;10.32;;;5.03;;
9485;SDS011;4781;48.776;9.200;2022-12-07T03:24:38;8.88;;;5.22;;
9485;SDS011;4781;48.776;9.200;2022-12-07T03:32:53;9.28;;;5.35;;
9485;SDS011;4781;48.776;9.200;2022-12-07T03:35:51;8.58;;;4.70;;
9485;SDS011;4781;48.776;9.200;2022-12-07T03:38:41;8.60;;;4.80;;
9485;SDS011;4781;48.776;9.200;2022-12-07T03:41:27;8.80;;;4.95;;
9485;SDS011;4781;48.776;9.200;2022-12-07T03:52:06;8.28;;;5.03;;
9485;SDS011;4781;48.776;9.200;2022-12-07T03:54:43;7.85;;;4.42;;
9485;SDS011;4781;48.776;9.200;2022-12-07T03:57:24;10.80;;;5.35;;
9485;SDS011;4781;48.776;9.200;2022-12-07T03:59:55;11.03;;;5.05;;
9485;SDS011;4781;48.776;9.200;2022-12-07T04:02:26;10.30;;;5.28;;
9485;SDS011;4781;48.776;9.200;2022-12-07T04:04:56;9.88;;;5.12;;
9485;SDS011;4781;48.776;9.200;2022-12-07T04:07:24;10.72;;;5.25;;
9485;SDS011;4781;48.776;9.200;2022-12-07T04:09:53;8.43;;;4.60;;
9485;SDS011;4781;48.776;9.200;2022-12-07T04:12:21;9.25;;;4.97;;
9485;SDS011;4781;48.776;9.200;2022-12-07T04:14:50;8.15;;;4.25;;
9485;SDS011;4781;48.776;9.200;2022-12-07T04:17:18;10.38;;;4.78;;
9485;SDS011;4781;48.776;9.200;2022-12-07T04:19:47;9.28;;;5.00;;
9485;SDS011;4781;48.776;9.200;2022-12-07T04:22:15;8.58;;;4.60;;
9485;SDS011;4781;48.776;9.200;2022-12-07T04:24:43;9.55;;;5.20;;
9485;SDS011;4781;48.776;9.200;2022-12-07T04:27:12;8.58;;;4.78;;
9485;SDS011;4781;48.776;9.200;2022-12-07T04:29:40;12.37;;;5.55;;
9485;SDS011;4781;48.776;9.200;2022-12-07T04:32:09;9.13;;;4.83;;
9485;SDS011;4781;48.776;9.200;2022-12-07T04:34:37;8.83;;;4.97;;
9485;SDS011;4781;48.776;9.200;2022-12-07T04:37:05;8.00;;;4.62;;
9485;SDS011;4781;48.776;9.200;2022-12-07T04:39:34;8.60;;;4.87;;
9485;SDS011;4781;48.776;9.200;2022-12-07T04:42:03;8.70;;;4.37;;
9485;SDS011;4781;48.776;9.200;2022-12-07T04:44:31;9.10;;;4.55;;
9485;SDS011;4781;48.776;9.200;2022-12-07T04:47:00;8.10;;;4.42;;
9485;SDS011;4781;48.776;9.200;2022-12-07T04:49:28;8.18;;;3.87;;
9485;SDS011;4781;48.776;9.200;2022-12-07T04:51:56;7.90;;;3.85;;
9485;SDS011;4781;48.776;9.200;2022-12-07T04:54:25;7.40;;;3.77;;
9485;SDS011;4781;48.776;9.200;2022-12-07T04:56:53;5.80;;;3.27;;
9485;SDS011;4781;48.776;9.200;2022-12-07T04:59:22;5.33;;;3.05;;
9485;SDS011;4781;48.776;9.200;2022-12-07T05:01:50;6.75;;;3.00;;
9485;SDS011;4781;48.776;9.200;2022-12-07T05:04:18;8.20;;;3.50;;
9485;SDS011;4781;48.776;9.200;2022-12-07T05:06:47;6.95;;;3.00;;
9485;SDS011;4781;48.776;9.200;2022-12-07T05:09:15;6.62;;;2.75;;
9485;SDS011;4781;48.776;9.200;2022-12-07T05:11:44;5.55;;;2.77;;
9485;SDS011;4781;48.776;9.200;2022-12-07T05:14:14;7.53;;;2.58;;
9485;SDS011;4781;48.776;9.200;2022-12-07T05:16:47;4.90;;;2.30;;
9485;SDS011;4781;48.776;9.200;2022-12-07T05:19:17;5.20;;;2.60;;
9485;SDS011;4781;48.776;9.200;2022-12-07T05:21:46;7.78;;;2.92;;
9485;SDS011;4781;48.776;9.200;2022-12-07T05:24:15;5.05;;;2.72;;
9485;SDS011;4781;48.776;9.200;2022-12-07T05:26:44;5.80;;;2.98;;
9485;SDS011;4781;48.776;9.200;2022-12-07T05:29:13;5.65;;;2.83;;
9485;SDS011;4781;48.776;9.200;2022-12-07T05:31:44;5.22;;;2.70;;
9485;SDS011;4781;48.776;9.200;2022-12-07T05:34:12;4.87;;;2.67;;
9485;SDS011;4781;48.776;9.200;2022-12-07T05:36:41;5.67;;;3.27;;
9485;SDS011;4781;48.776;9.200;2022-12-07T05:39:09;6.62;;;3.00;;
9485;SDS011;4781;48.776;9.200;2022-12-07T05:41:38;6.55;;;3.70;;
9485;SDS011;4781;48.776;9.200;2022-12-07T05:44:24;8.68;;;4.15;;
9485;SDS011;4781;48.776;9.200;2022-12-07T05:46:52;9.20;;;4.70;;
9485;SDS011;4781;48.776;9.200;2022-12-07T05:49:21;7.80;;;4.45;;
9485;SDS011;4781;48.776;9.200;2022-12-07T05:51:49;8.15;;;3.83;;
9485;SDS011;4781;48.776;9.200;2022-12-07T05:54:17;6.92;;;3.70;;
9485;SDS011;4781;48.776;9.200;2022-12-07T05:56:46;10.45;;;4.47;;
9485;SDS011;4781;48.776;9.200;2022-12-07T05:59:14;7.78;;;3.92;;
9485;SDS011;4781;48.776;9.200;2022-12-07T06:01:49;8.40;;;3.92;;
9485;SDS011;4781;48.776;9.200;2022-12-07T06:04:30;10.13;;;4.45;;
9485;SDS011;4781;48.776;9.200;2022-12-07T06:07:03;6.97;;;4.22;;
9485;SDS011;4781;48.776;9.200;2022-12-07T06:09:32;9.08;;;4.30;;
9485;SDS011;4781;48.776;9.200;2022-12-07T06:12:02;9.65;;;4.65;;
9485;SDS011;4781;48.776;9.200;2022-12-07T06:14:48;8.73;;;4.78;;
9485;SDS011;4781;48.776;9.200;2022-12-07T06:17:17;6.90;;;3.62;;
9485;SDS011;4781;48.776;9.200;2022-12-07T06:19:45;7.62;;;3.77;;
9485;SDS011;4781;48.776;9.200;2022-12-07T06:22:14;7.83;;;4.10;;
9485;SDS011;4781;48.776;9.200;2022-12-07T06:24:42;8.20;;;4.05;;
9485;SDS011;4781;48.776;9.200;2022-12-07T06:27:10;10.08;;;4.67;;
9485;SDS011;4781;48.776;9.200;2022-12-07T06:29:39;8.00;;;4.33;;
9485;SDS011;4781;48.776;9.200;2022-12-07T06:32:07;9.25;;;4.75;;
9485;SDS011;4781;48.776;9.200;2022-12-07T06:34:37;10.72;;;4.15;;
9485;SDS011;4781;48.776;9.200;2022-12-07T06:37:05;9.33;;;3.95;;
9485;SDS011;4781;48.776;9.200;2022-12-07T06:39:34;8.25;;;4.05;;
9485;SDS011;4781;48.776;9.200;2022-12-07T06:42:02;6.85;;;3.62;;
9485;SDS011;4781;48.776;9.200;2022-12-07T06:44:30;7.35;;;3.72;;
9485;SDS011;4781;48.776;9.200;2022-12-07T06:46:59;7.80;;;4.00;;
9485;SDS011;4781;48.776;9.200;2022-12-07T06:49:28;9.30;;;4.35;;
9485;SDS011;4781;48.776;9.200;2022-12-07T06:51:56;8.00;;;3.65;;
9485;SDS011;4781;48.776;9.200;2022-12-07T06:54:24;7.28;;;3.75;;
9485;SDS011;4781;48.776;9.200;2022-12-07T06:56:54;9.15;;;4.15;;
9485;SDS011;4781;48.776;9.200;2022-12-07T06:59:23;7.10;;;3.83;;
9485;SDS011;4781;48.776;9.200;2022-12-07T07:01:51;10.20;;;4.53;;
9485;SDS011;4781;48.776;9.200;2022-12-07T07:04:20;7.10;;;3.30;;
9485;SDS011;4781;48.776;9.200;2022-12-07T07:06:48;7.35;;;3.37;;
9485;SDS011;4781;48.776;9.200;2022-12-07T07:09:16;7.05;;;3.20;;
9485;SDS011;4781;48.776;9.200;2022-12-07T07:11:45;7.40;;;3.85;;
9485;SDS011;4781;48.776;9.200;2022-12-07T07:14:13;5.65;;;3.40;;
9485;SDS011;4781;48.776;9.200;2022-12-07T07:16:43;6.40;;;3.35;;
9485;SDS011;4781;48.776;9.200;2022-12-07T07:19:12;6.42;;;3.12;;
9485;SDS011;4781;48.776;9.200;2022-12-07T07:21:40;6.45;;;3.52;;
9485;SDS011;4781;48.776;9.200;2022-12-07T07:24:09;7.42;;;3.22;;
9485;SDS011;4781;48.776;9.200;2022-12-07T07:26:37;6.00;;;3.05;;
9485;SDS011;4781;48.776;9.200;2022-12-07T07:29:05;6.87;;;3.33;;
9485;SDS011;4781;48.776;9.200;2022-12-07T07:31:34;6.70;;;3.33;;
9485;SDS011;4781;48.776;9.200;2022-12-07T07:34:02;6.85;;;3.22;;
9485;SDS011;4781;48.776;9.200;2022-12-07T07:36:32;5.47;;;2.62;;
9485;SDS011;4781;48.776;9.200;2022-12-07T07:39:00;6.08;;;3.02;;
9485;SDS011;4781;48.776;9.200;2022-12-07T07:41:29;7.22;;;3.15;;
9485;SDS011;4781;48.776;9.200;2022-12-07T07:43:58;5.42;;;2.87;;
9485;SDS011;4781;48.776;9.200;2022-12-07T07:46:27;8.45;;;3.37;;
9485;SDS011;4781;48.776;9.200;2022-12-07T07:48:56;5.62;;;3.15;;
9485;SDS011;4781;48.776;9.200;2022-12-07T07:51:24;6.35;;;3.15;;
9485;SDS011;4781;48.776;9.200;2022-12-07T07:53:53;7.03;;;3.15;;
9485;SDS011;4781;48.776;9.200;2022-12-07T07:56:21;7.95;;;3.10;;
9485;SDS011;4781;48.776;9.200;2022-12-07T07:58:53;7.40;;;3.30;;
9485;SDS011;4781;48.776;9.200;2022-12-07T08:01:22;9.18;;;3.92;;
9485;SDS011;4781;48.776;9.200;2022-12-07T08:03:50;5.40;;;2.87;;
9485;SDS011;4781;48.776;9.200;2022-12-07T08:06:19;8.88;;;3.65;;
9485;SDS011;4781;48.776;9.200;2022-12-07T08:08:47;8.63;;;3.40;;
9485;SDS011;4781;48.776;9.200;2022-12-07T08:11:15;6.45;;;3.17;;
9485;SDS011;4781;48.776;9.200;2022-12-07T08:13:46;6.30;;;3.85;;
9485;SDS011;4781;48.776;9.200;2022-12-07T08:16:15;8.65;;;3.83;;
9485;SDS011;4781;48.776;9.200;2022-12-07T08:18:44;8.78;;;3.55;;
9485;SDS011;4781;48.776;9.200;2022-12-07T08:21:13;6.75;;;3.72;;
9485;SDS011;4781;48.776;9.200;2022-12-07T08:23:42;6.42;;;3.08;;
9485;SDS011;4781;48.776;9.200;2022-12-07T08:26:12;6.75;;;3.40;;
9485;SDS011;4781;48.776;9.200;2022-12-07T08:28:42;5.95;;;2.95;;
9485;SDS011;4781;48.776;9.200;2022-12-07T08:31:12;6.73;;;3.00;;
9485;SDS011;4781;48.776;9.200;2022-12-07T08:33:47;6.58;;;3.37;;
9485;SDS011;4781;48.776;9.200;2022-12-07T08:36:16;5.08;;;2.83;;
9485;SDS011;4781;48.776;9.200;2022-12-07T08:38:45;6.05;;;3.08;;
9485;SDS011;4781;48.776;9.200;2022-12-07T08:41:13;7.22;;;3.40;;
9485;SDS011;4781;48.776;9.200;2022-12-07T08:43:42;6.47;;;2.85;;
9485;SDS011;4781;48.776;9.200;2022-12-07T08:49:05;6.05;;;3.00;;
9485;SDS011;4781;48.776;9.200;2022-12-07T08:51:45;5.85;;;2.80;;
9485;SDS011;4781;48.776;9.200;2022-12-07T08:54:14;5.15;;;2.37;;
9485;SDS011;4781;48.776;9.200;2022-12-07T08:56:45;5.87;;;3.10;;
9485;SDS011;4781;48.776;9.200;2022-12-07T08:59:15;6.55;;;3.55;;
9485;SDS011;4781;48.776;9.200;2022-12-07T09:01:45;6.83;;;3.17;;
9485;SDS011;4781;48.776;9.200;2022-12-07T09:04:13;6.58;;;3.35;;
9485;SDS011;4781;48.776;9.200;2022-12-07T09:06:42;5.97;;;2.90;;
9485;SDS011;4781;48.776;9.200;2022-12-07T09:09:11;6.47;;;3.37;;
9485;SDS011;4781;48.776;9.200;2022-12-07T09:11:41;5.22;;;3.00;;
9485;SDS011;4781;48.776;9.200;2022-12-07T09:14:11;6.12;;;2.92;;
9485;SDS011;4781;48.776;9.200;2022-12-07T09:16:40;7.67;;;3.58;;
9485;SDS011;4781;48.776;9.200;2022-12-07T09:19:08;7.62;;;3.67;;
9485;SDS011;4781;48.776;9.200;2022-12-07T09:21:37;8.60;;;2.92;;
9485;SDS011;4781;48.776;9.200;2022-12-07T09:24:05;8.38;;;3.27;;
9485;SDS011;4781;48.776;9.200;2022-12-07T09:26:35;6.75;;;3.27;;
9485;SDS011;4781;48.776;9.200;2022-12-07T09:29:05;5.33;;;3.05;;
9485;SDS011;4781;48.776;9.200;2022-12-07T09:31:35;7.75;;;3.25;;
9485;SDS011;4781;48.776;9.200;2022-12-07T09:34:04;7.92;;;3.47;;
9485;SDS011;4781;48.776;9.200;2022-12-07T09:36:33;5.75;;;2.70;;
9485;SDS011;4781;48.776;9.200;2022-12-07T09:39:01;5.22;;;2.30;;
9485;SDS011;4781;48.776;9.200;2022-12-07T09:41:31;7.72;;;3.45;;
9485;SDS011;4781;48.776;9.200;2022-12-07T09:44:05;5.83;;;3.00;;
9485;SDS011;4781;48.776;9.200;2022-12-07T09:46:36;5.45;;;2.70;;
9485;SDS011;4781;48.776;9.200;2022-12-07T09:54:50;4.58;;;2.47;;
9485;SDS011;4781;48.776;9.200;2022-12-07T09:57:20;5.40;;;2.52;;
9485;SDS011;4781;48.776;9.200;2022-12-07T10:00:14;6.35;;;3.12;;
9485;SDS011;4781;48.776;9.200;2022-12-07T10:08:11;9.15;;;3.30;;
9485;SDS011;4781;48.776;9.200;2022-12-07T10:10:42;5.70;;;2.45;;
9485;SDS011;4781;48.776;9.200;2022-12-07T10:13:13;4.10;;;2.37;;
9485;SDS011;4781;48.776;9.200;2022-12-07T10:18:34;5.65;;;2.62;;
9485;SDS011;4781;48.776;9.200;2022-12-07T10:21:17;5.55;;;2.40;;
9485;SDS011;4781;48.776;9.200;2022-12-07T10:24:12;4.78;;;2.45;;
9485;SDS011;4781;48.776;9.200;2022-12-07T10:29:26;6.12;;;2.52;;
9485;SDS011;4781;48.776;9.200;2022-12-07T10:32:05;4.03;;;2.08;;
9485;SDS011;4781;48.776;9.200;2022-12-07T10:34:43;4.85;;;2.20;;
9485;SDS011;4781;48.776;9.200;2022-12-07T10:39:48;5.95;;;2.37;;
9485;SDS011;4781;48.776;9.200;2022-12-07T10:42:22;8.20;;;2.22;;
9485;SDS011;4781;48.776;9.200;2022-12-07T10:48:21;4.17;;;1.80;;
9485;SDS011;4781;48.776;9.200;2022-12-07T10:53:36;4.47;;;2.30;;
9485;SDS011;4781;48.776;9.200;2022-12-07T10:56:19;5.65;;;2.33;;
9485;SDS011;4781;48.776;9.200;2022-12-07T10:58:53;6.53;;;1.70;;
9485;SDS011;4781;48.776;9.200;2022-12-07T11:07:53;4.97;;;2.20;;
9485;SDS011;4781;48.776;9.200;2022-12-07T11:13:39;4.67;;;2.05;;
9485;SDS011;4781;48.776;9.200;2022-12-07T11:16:28;4.30;;;2.00;;
9485;SDS011;4781;48.776;9.200;2022-12-07T11:22:26;4.78;;;2.10;;
9485;SDS011;4781;48.776;9.200;2022-12-07T11:25:15;4.12;;;2.10;;
9485;SDS011;4781;48.776;9.200;2022-12-07T11:33:22;3.00;;;1.67;;
9485;SDS011;4781;48.776;9.200;2022-12-07T11:39:00;7.25;;;2.65;;
9485;SDS011;4781;48.776;9.200;2022-12-07T11:41:31;4.53;;;1.98;;
9485;SDS011;4781;48.776;9.200;2022-12-07T11:44:05;5.30;;;2.20;;
9485;SDS011;4781;48.776;9.200;2022-12-07T11:49:51;4.30;;;1.98;;
9485;SDS011;4781;48.776;9.200;2022-12-07T11:53:02;4.42;;;1.82;;
9485;SDS011;4781;48.776;9.200;2022-12-07T12:01:26;4.12;;;1.90;;
9485;SDS011;4781;48.776;9.200;2022-12-07T12:06:52;6.65;;;2.30;;
9485;SDS011;4781;48.776;9.200;2022-12-07T12:09:29;4.33;;;2.52;;
9485;SDS011;4781;48.776;9.200;2022-12-07T12:15:09;4.53;;;2.75;;
9485;SDS011;4781;48.776;9.200;2022-12-07T12:17:56;5.35;;;2.92;;
9485;SDS011;4781;48.776;9.200;2022-12-07T12:20:43;6.83;;;3.17;;
9485;SDS011;4781;48.776;9.200;2022-12-07T12:23:15;6.53;;;3.27;;
9485;SDS011;4781;48.776;9.200;2022-12-07T12:25:50;14.40;;;3.58;;
9485;SDS011;4781;48.776;9.200;2022-12-07T12:28:25;7.10;;;3.87;;
9485;SDS011;4781;48.776;9.200;2022-12-07T12:31:15;5.65;;;2.90;;
9485;SDS011;4781;48.776;9.200;2022-12-07T12:33:53;6.28;;;3.83;;
9485;SDS011;4781;48.776;9.200;2022-12-07T12:41:50;8.93;;;3.87;;
9485;SDS011;4781;48.776;9.200;2022-12-07T12:47:01;6.00;;;2.83;;
9485;SDS011;4781;48.776;9.200;2022-12-07T12:57:43;8.10;;;3.00;;
9485;SDS011;4781;48.776;9.200;2022-12-07T13:02:52;4.22;;;2.52;;
9485;SDS011;4781;48.776;9.200;2022-12-07T13:05:26;5.33;;;2.70;;
9485;SDS011;4781;48.776;9.200;2022-12-07T13:07:57;7.28;;;3.47;;
9485;SDS011;4781;48.776;9.200;2022-12-07T13:10:47;4.10;;;2.50;;
9485;SDS011;4781;48.776;9.200;2022-12-07T13:15:53;5.37;;;2.60;;
9485;SDS011;4781;48.776;9.200;2022-12-07T13:18:37;6.62;;;2.87;;
9485;SDS011;4781;48.776;9.200;2022-12-07T13:24:01;6.03;;;3.10;;
9485;SDS011;4781;48.776;9.200;2022-12-07T13:29:13;5.37;;;3.00;;
9485;SDS011;4781;48.776;9.200;2022-12-07T13:31:53;5.40;;;2.70;;
9485;SDS011;4781;48.776;9.200;2022-12-07T13:34:32;5.83;;;3.00;;
9485;SDS011;4781;48.776;9.200;2022-12-07T13:39:47;5.17;;;2.77;;
9485;SDS011;4781;48.776;9.200;2022-12-07T13:42:26;7.10;;;3.02;;
9485;SDS011;4781;48.776;9.200;2022-12-07T13:48:21;9.38;;;2.92;;
9485;SDS011;4781;48.776;9.200;2022-12-07T13:50:56;5.05;;;2.12;;
9485;SDS011;4781;48.776;9.200;2022-12-07T13:53:26;5.17;;;2.65;;
9485;SDS011;4781;48.776;9.200;2022-12-07T13:55:56;5.03;;;2.75;;
9485;SDS011;4781;48.776;9.200;2022-12-07T13:58:27;4.47;;;2.65;;
9485;SDS011;4781;48.776;9.200;2022-12-07T14:00:58;6.15;;;2.70;;
9485;SDS011;4781;48.776;9.200;2022-12-07T14:03:33;6.35;;;2.60;;
9485;SDS011;4781;48.776;9.200;2022-12-07T14:06:04;4.20;;;2.30;;
9485;SDS011;4781;48.776;9.200;2022-12-07T14:08:42;4.92;;;2.27;;
9485;SDS011;4781;48.776;9.200;2022-12-07T14:11:16;5.20;;;2.67;;
9485;SDS011;4781;48.776;9.200;2022-12-07T14:16:24;5.10;;;2.52;;
9485;SDS011;4781;48.776;9.200;2022-12-07T14:19:06;6.10;;;2.60;;
9485;SDS011;4781;48.776;9.200;2022-12-07T14:21:33;5.40;;;2.98;;
9485;SDS011;4781;48.776;9.200;2022-12-07T14:24:08;10.00;;;4.35;;
9485;SDS011;4781;48.776;9.200;2022-12-07T14:26:38;6.75;;;3.47;;
9485;SDS011;4781;48.776;9.200;2022-12-07T14:32:17;5.90;;;2.92;;
9485;SDS011;4781;48.776;9.200;2022-12-07T14:34:53;6.35;;;3.25;;
9485;SDS011;4781;48.776;9.200;2022-12-07T14:37:40;4.35;;;2.35;;
9485;SDS011;4781;48.776;9.200;2022-12-07T14:40:16;5.08;;;2.83;;
9485;SDS011;4781;48.776;9.200;2022-12-07T14:42:49;4.95;;;2.90;;
9485;SDS011;4781;48.776;9.200;2022-12-07T14:45:21;4.95;;;2.65;;
9485;SDS011;4781;48.776;9.200;2022-12-07T14:47:50;5.05;;;2.90;;
9485;SDS011;4781;48.776;9.200;2022-12-07T14:50:19;5.37;;;3.12;;
9485;SDS011;4781;48.776;9.200;2022-12-07T14:52:49;6.05;;;3.45;;
9485;SDS011;4781;48.776;9.200;2022-12-07T14:55:30;6.55;;;3.20;;
9485;SDS011;4781;48.776;9.200;2022-12-07T14:57:59;5.30;;;2.80;;
9485;SDS011;4781;48.776;9.200;2022-12-07T15:00:27;6.42;;;3.35;;
9485;SDS011;4781;48.776;9.200;2022-12-07T15:02:56;6.30;;;3.17;;
9485;SDS011;4781;48.776;9.200;2022-12-07T15:05:25;14.18;;;4.03;;
9485;SDS011;4781;48.776;9.200;2022-12-07T15:07:53;7.53;;;3.22;;
9485;SDS011;4781;48.776;9.200;2022-12-07T15:10:29;5.42;;;3.12;;
9485;SDS011;4781;48.776;9.200;2022-12-07T15:13:02;5.37;;;3.20;;
9485;SDS011;4781;48.776;9.200;2022-12-07T15:15:50;7.67;;;3.10;;
9485;SDS011;4781;48.776;9.200;2022-12-07T15:18:20;8.18;;;3.95;;
9485;SDS011;4781;48.776;9.200;2022-12-07T15:20:50;6.22;;;3.27;;
9485;SDS011;4781;48.776;9.200;2022-12-07T15:23:18;6.55;;;3.35;;
9485;SDS011;4781;48.776;9.200;2022-12-07T15:25:47;6.05;;;2.80;;
9485;SDS011;4781;48.776;9.200;2022-12-07T15:28:16;5.97;;;3.10;;
9485;SDS011;4781;48.776;9.200;2022-12-07T15:30:45;6.25;;;3.20;;
9485;SDS011;4781;48.776;9.200;2022-12-07T15:33:13;7.72;;;3.37;;
9485;SDS011;4781;48.776;9.200;2022-12-07T15:35:42;6.10;;;3.33;;
9485;SDS011;4781;48.776;9.200;2022-12-07T15:38:12;5.83;;;3.10;;
9485;SDS011;4781;48.776;9.200;2022-12-07T15:40:40;11.75;;;3.45;;
9485;SDS011;4781;48.776;9.200;2022-12-07T15:43:09;4.90;;;2.72;;
9485;SDS011;4781;48.776;9.200;2022-12-07T15:45:39;8.00;;;3.05;;
9485;SDS011;4781;48.776;9.200;2022-12-07T15:48:07;5.47;;;2.95;;
9485;SDS011;4781;48.776;9.200;2022-12-07T15:50:36;5.85;;;3.35;;
9485;SDS011;4781;48.776;9.200;2022-12-07T15:53:04;6.45;;;2.95;;
9485;SDS011;4781;48.776;9.200;2022-12-07T15:55:32;7.75;;;3.50;;
9485;SDS011;4781;48.776;9.200;2022-12-07T15:58:01;6.62;;;3.15;;
9485;SDS011;4781;48.776;9.200;2022-12-07T16:00:29;6.90;;;3.45;;
9485;SDS011;4781;48.776;9.200;2022-12-07T16:02:58;6.40;;;3.17;;
9485;SDS011;4781;48.776;9.200;2022-12-07T16:05:26;6.08;;;2.87;;
9485;SDS011;4781;48.776;9.200;2022-12-07T16:07:54;7.87;;;3.80;;
9485;SDS011;4781;48.776;9.200;2022-12-07T16:10:23;7.90;;;3.52;;
9485;SDS011;4781;48.776;9.200;2022-12-07T16:12:51;8.58;;;3.83;;
9485;SDS011;4781;48.776;9.200;2022-12-07T16:15:20;6.78;;;3.83;;
9485;SDS011;4781;48.776;9.200;2022-12-07T16:17:50;7.92;;;3.70;;
9485;SDS011;4781;48.776;9.200;2022-12-07T16:20:19;8.23;;;3.80;;
9485;SDS011;4781;48.776;9.200;2022-12-07T16:22:50;6.90;;;3.55;;
9485;SDS011;4781;48.776;9.200;2022-12-07T16:25:19;5.70;;;3.25;;
9485;SDS011;4781;48.776;9.200;2022-12-07T16:27:47;7.45;;;3.95;;
9485;SDS011;4781;48.776;9.200;2022-12-07T16:30:15;12.07;;;4.30;;
9485;SDS011;4781;48.776;9.200;2022-12-07T16:32:44;8.88;;;3.75;;
9485;SDS011;4781;48.776;9.200;2022-12-07T16:35:12;8.88;;;3.87;;
9485;SDS011;4781;48.776;9.200;2022-12-07T16:37:41;7.58;;;4.80;;
9485;SDS011;4781;48.776;9.200;2022-12-07T16:40:10;9.23;;;4.50;;
9485;SDS011;4781;48.776;9.200;2022-12-07T16:42:39;10.45;;;5.17;;
9485;SDS011;4781;48.776;9.200;2022-12-07T16:45:08;9.58;;;4.67;;
9485;SDS011;4781;48.776;9.200;2022-12-07T16:47:37;9.50;;;4.75;;
9485;SDS011;4781;48.776;9.200;2022-12-07T16:50:06;9.35;;;4.10;;
9485;SDS011;4781;48.776;9.200;2022-12-07T16:52:35;8.70;;;4.17;;
9485;SDS011;4781;48.776;9.200;2022-12-07T16:55:04;11.10;;;4.28;;
9485;SDS011;4781;48.776;9.200;2022-12-07T16:57:33;8.78;;;5.03;;
9485;SDS011;4781;48.776;9.200;2022-12-07T17:00:02;12.80;;;5.03;;
9485;SDS011;4781;48.776;9.200;2022-12-07T17:02:31;9.70;;;4.28;;
9485;SDS011;4781;48.776;9.200;2022-12-07T17:05:00;10.28;;;4.83;;
9485;SDS011;4781;48.776;9.200;2022-12-07T17:07:28;8.85;;;4.50;;
9485;SDS011;4781;48.776;9.200;2022-12-07T17:09:56;9.43;;;4.80;;
9485;SDS011;4781;48.776;9.200;2022-12-07T17:12:25;10.85;;;4.95;;
9485;SDS011;4781;48.776;9.200;2022-12-07T17:14:53;10.38;;;4.60;;
9485;SDS011;4781;48.776;9.200;2022-12-07T17:17:39;10.48;;;4.70;;
9485;SDS011;4781;48.776;9.200;2022-12-07T17:20:08;9.38;;;4.40;;
9485;SDS011;4781;48.776;9.200;2022-12-07T17:22:37;14.15;;;5.55;;
9485;SDS011;4781;48.776;9.200;2022-12-07T17:25:05;10.10;;;4.60;;
9485;SDS011;4781;48.776;9.200;2022-12-07T17:27:35;11.05;;;5.72;;
9485;SDS011;4781;48.776;9.200;2022-12-07T17:30:04;11.85;;;5.55;;
9485;SDS011;4781;48.776;9.200;2022-12-07T17:32:34;9.58;;;4.40;;
9485;SDS011;4781;48.776;9.200;2022-12-07T17:35:03;10.25;;;4.45;;
9485;SDS011;4781;48.776;9.200;2022-12-07T17:37:32;8.10;;;4.30;;
9485;SDS011;4781;48.776;9.200;2022-12-07T17:40:01;9.58;;;4.53;;
9485;SDS011;4781;48.776;9.200;2022-12-07T17:42:30;18.75;;;7.25;;
9485;SDS011;4781;48.776;9.200;2022-12-07T17:45:07;11.60;;;5.35;;
9485;SDS011;4781;48.776;9.200;2022-12-07T17:47:37;10.90;;;5.87;;
9485;SDS011;4781;48.776;9.200;2022-12-07T17:50:06;8.43;;;4.62;;
9485;SDS011;4781;48.776;9.200;2022-12-07T17:52:39;12.70;;;5.78;;
9485;SDS011;4781;48.776;9.200;2022-12-07T17:55:25;12.05;;;5.80;;
9485;SDS011;4781;48.776;9.200;2022-12-07T17:57:54;13.48;;;5.72;;